createdAt,value
2023-04-29T00:00:14.826Z,58.40
2023-04-29T00:02:44.321Z,58.30
2023-04-29T00:05:13.770Z,58.40
2023-04-29T00:07:43.457Z,58.30
2023-04-29T00:10:14.876Z,58.30
2023-04-29T00:12:44.068Z,58.20
2023-04-29T00:15:14.999Z,58.30
2023-04-29T00:17:45.722Z,58.30
2023-04-29T00:20:15.493Z,58.20
2023-04-29T00:22:45.300Z,58.20
2023-04-29T00:25:14.763Z,58.30
2023-04-29T00:27:43.945Z,58.20
2023-04-29T00:30:14.767Z,58.30
2023-04-29T00:32:45.008Z,58.20
2023-04-29T00:35:14.259Z,58.30
2023-04-29T00:37:43.387Z,58.20
2023-04-29T00:40:15.512Z,58.20
2023-04-29T00:42:45.161Z,58.20
2023-04-29T00:45:15.935Z,58.20
2023-04-29T00:47:45.282Z,58.10
2023-04-29T00:50:14.705Z,58.20
2023-04-29T00:52:46.140Z,58.10
2023-04-29T00:55:15.801Z,58.20
2023-04-29T00:57:45.026Z,58.20
2023-04-29T01:00:16.422Z,58.10
2023-04-29T01:02:46.368Z,58.20
2023-04-29T01:05:16.401Z,58.20
2023-04-29T01:08:00.164Z,58.20
2023-04-29T01:10:32.139Z,58.20
2023-04-29T01:13:08.585Z,58.20
2023-04-29T01:15:51.281Z,58.20
2023-04-29T01:18:25.072Z,58.20
2023-04-29T01:20:56.220Z,58.20
2023-04-29T01:23:29.179Z,58.20
2023-04-29T01:25:59.919Z,58.20
2023-04-29T01:28:52.301Z,58.20
2023-04-29T01:31:29.520Z,58.20
2023-04-29T01:34:09.035Z,58.10
2023-04-29T01:36:49.717Z,58.20
2023-04-29T01:39:34.952Z,58.10
2023-04-29T01:42:22.820Z,58.20
2023-04-29T01:44:54.686Z,58.20
2023-04-29T01:47:25.909Z,58.10
2023-04-29T01:49:56.607Z,58.10
2023-04-29T01:52:26.149Z,58.20
2023-04-29T01:55:00.483Z,58.10
2023-04-29T01:57:38.403Z,58.10
2023-04-29T02:00:25.289Z,58.10
2023-04-29T02:02:55.218Z,58.10
2023-04-29T02:05:42.592Z,58.10
2023-04-29T02:08:11.816Z,58.10
2023-04-29T02:10:55.134Z,58.00
2023-04-29T02:13:33.673Z,58.00
2023-04-29T02:16:09.804Z,58.10
2023-04-29T02:18:41.194Z,58.10
2023-04-29T02:21:10.945Z,58.00
2023-04-29T02:23:40.221Z,58.00
2023-04-29T02:26:10.936Z,58.10
2023-04-29T02:28:40.237Z,58.10
2023-04-29T02:31:09.432Z,58.00
2023-04-29T02:33:38.806Z,58.00
2023-04-29T02:36:08.030Z,58.00
2023-04-29T02:38:37.149Z,58.00
2023-04-29T02:41:06.402Z,58.00
2023-04-29T02:43:37.297Z,58.00
2023-04-29T02:46:06.788Z,58.00
2023-04-29T02:48:36.812Z,58.20
2023-04-29T02:51:06.817Z,58.20
2023-04-29T02:53:36.064Z,58.00
2023-04-29T02:56:05.656Z,58.00
2023-04-29T02:58:36.476Z,58.00
2023-04-29T03:01:06.186Z,58.10
2023-04-29T03:03:44.385Z,58.20
2023-04-29T03:06:13.782Z,58.10
2023-04-29T03:08:43.423Z,58.10
2023-04-29T03:11:12.704Z,58.10
2023-04-29T03:13:43.360Z,58.20
2023-04-29T03:16:14.010Z,58.20
2023-04-29T03:18:43.255Z,58.10
2023-04-29T03:21:12.702Z,58.10
2023-04-29T03:23:41.891Z,58.10
2023-04-29T03:26:14.213Z,58.20
2023-04-29T03:28:45.042Z,58.20
2023-04-29T03:31:16.611Z,58.20
2023-04-29T03:33:46.661Z,58.20
2023-04-29T03:36:16.004Z,58.10
2023-04-29T03:39:14.493Z,58.10
2023-04-29T03:41:45.256Z,58.00
2023-04-29T03:44:16.253Z,58.10
2023-04-29T03:46:45.909Z,58.00
2023-04-29T03:49:16.181Z,58.00
2023-04-29T03:51:46.523Z,58.00
2023-04-29T03:54:18.221Z,57.90
2023-04-29T03:56:47.620Z,58.00
2023-04-29T03:59:18.187Z,57.90
2023-04-29T04:01:47.524Z,57.90
2023-04-29T04:04:17.741Z,57.80
2023-04-29T04:06:51.983Z,57.80
2023-04-29T04:09:23.981Z,57.60
2023-04-29T04:11:53.393Z,57.70
2023-04-29T04:14:24.380Z,57.70
2023-04-29T04:16:53.578Z,57.80
2023-04-29T04:19:22.902Z,57.70
2023-04-29T04:21:52.143Z,57.80
2023-04-29T04:24:21.271Z,57.80
2023-04-29T04:26:50.677Z,57.80
2023-04-29T04:29:36.141Z,57.70
2023-04-29T04:32:20.521Z,57.60
2023-04-29T04:34:49.915Z,57.70
2023-04-29T04:37:19.162Z,57.70
2023-04-29T04:39:53.785Z,57.60
2023-04-29T04:42:24.509Z,57.60
2023-04-29T04:44:57.417Z,57.60
2023-04-29T04:47:51.526Z,57.60
2023-04-29T04:50:25.139Z,57.60
2023-04-29T04:52:56.544Z,57.70
2023-04-29T04:55:42.432Z,57.60
2023-04-29T04:58:11.768Z,57.60
2023-04-29T05:00:46.801Z,57.60
2023-04-29T05:03:16.526Z,57.60
2023-04-29T05:05:45.896Z,57.50
2023-04-29T05:08:15.432Z,57.50
2023-04-29T05:10:47.918Z,57.60
2023-04-29T05:13:17.500Z,57.50
2023-04-29T05:15:48.271Z,57.60
2023-04-29T05:18:22.757Z,57.60
2023-04-29T05:20:54.040Z,57.60
2023-04-29T05:23:24.192Z,57.50
2023-04-29T05:25:53.603Z,57.50
2023-04-29T05:28:22.927Z,57.50
2023-04-29T05:30:55.440Z,57.40
2023-04-29T05:33:24.667Z,57.40
2023-04-29T05:35:53.951Z,57.30
2023-04-29T05:38:29.032Z,57.40
2023-04-29T05:41:08.577Z,57.40
2023-04-29T05:43:56.233Z,57.40
2023-04-29T05:46:26.980Z,57.40
2023-04-29T05:48:56.368Z,57.40
2023-04-29T05:51:26.012Z,57.40
2023-04-29T05:53:55.240Z,57.30
2023-04-29T05:56:25.018Z,57.40
2023-04-29T05:58:54.208Z,57.40
2023-04-29T06:01:23.956Z,57.40
2023-04-29T06:03:55.031Z,57.50
2023-04-29T06:06:40.238Z,57.70
2023-04-29T06:09:27.609Z,57.80
2023-04-29T06:11:59.576Z,57.80
2023-04-29T06:14:28.781Z,57.70
2023-04-29T06:16:58.529Z,57.70
2023-04-29T06:19:29.235Z,57.80
2023-04-29T06:21:58.916Z,57.90
2023-04-29T06:24:28.350Z,57.80
2023-04-29T06:26:59.239Z,57.90
2023-04-29T06:29:29.209Z,57.90
2023-04-29T06:31:58.537Z,57.80
2023-04-29T06:34:29.199Z,57.80
2023-04-29T06:37:25.704Z,57.90
2023-04-29T06:40:20.240Z,57.90
2023-04-29T06:43:13.999Z,58.00
2023-04-29T06:46:15.517Z,58.00
2023-04-29T06:49:03.976Z,58.20
2023-04-29T06:51:37.174Z,58.20
2023-04-29T06:54:06.681Z,58.30
2023-04-29T06:56:36.081Z,58.30
2023-04-29T06:59:06.121Z,59.00
2023-04-29T07:01:37.595Z,58.30
2023-04-29T07:04:07.088Z,58.40
2023-04-29T07:06:37.736Z,58.60
2023-04-29T07:09:07.230Z,58.80
2023-04-29T07:11:36.443Z,58.80
2023-04-29T07:14:05.576Z,58.70
2023-04-29T07:16:35.242Z,58.50
2023-04-29T07:19:04.746Z,58.40
2023-04-29T07:21:34.042Z,58.80
2023-04-29T07:24:05.189Z,58.80
2023-04-29T07:26:34.399Z,59.10
2023-04-29T07:29:03.563Z,59.00
2023-04-29T07:31:34.844Z,59.00
2023-04-29T07:34:06.319Z,59.10
2023-04-29T07:36:35.807Z,58.90
2023-04-29T07:39:06.521Z,58.80
2023-04-29T07:41:35.940Z,58.60
2023-04-29T07:44:05.184Z,58.60
2023-04-29T07:46:34.528Z,58.70
2023-04-29T07:49:03.769Z,58.60
2023-04-29T07:51:33.729Z,58.50
2023-04-29T07:54:04.827Z,58.50
2023-04-29T07:56:35.876Z,58.60
2023-04-29T07:59:05.294Z,58.60
2023-04-29T08:01:34.563Z,59.20
2023-04-29T08:04:04.070Z,58.60
2023-04-29T08:06:37.085Z,58.50
2023-04-29T08:09:06.576Z,58.50
2023-04-29T08:11:37.225Z,58.80
2023-04-29T08:14:07.236Z,58.90
2023-04-29T08:16:36.568Z,59.00
2023-04-29T08:19:05.838Z,59.00
2023-04-29T08:21:35.464Z,59.00
2023-04-29T08:24:05.900Z,58.90
2023-04-29T08:26:36.518Z,58.90
2023-04-29T08:29:05.699Z,59.00
2023-04-29T08:31:34.970Z,59.00
2023-04-29T08:34:04.204Z,59.00
2023-04-29T08:36:33.902Z,58.90
2023-04-29T08:39:03.198Z,59.00
2023-04-29T08:41:33.899Z,58.90
2023-04-29T08:44:04.618Z,58.90
2023-04-29T08:46:34.478Z,58.80
2023-04-29T08:49:05.225Z,58.90
2023-04-29T08:51:35.427Z,58.90
2023-04-29T08:54:04.872Z,58.90
2023-04-29T08:56:34.757Z,59.00
2023-04-29T08:59:06.964Z,59.00
2023-04-29T09:01:40.253Z,59.10
2023-04-29T09:04:16.068Z,59.00
2023-04-29T09:06:47.047Z,59.00
2023-04-29T09:09:18.629Z,59.20
2023-04-29T09:11:49.691Z,59.10
2023-04-29T09:14:21.052Z,59.00
2023-04-29T09:16:50.309Z,59.30
2023-04-29T09:19:34.998Z,59.20
2023-04-29T09:22:05.249Z,59.30
2023-04-29T09:24:34.432Z,59.20
2023-04-29T09:27:04.732Z,59.10
2023-04-29T09:29:36.695Z,59.00
2023-04-29T09:32:22.026Z,59.00
2023-04-29T09:34:52.034Z,59.00
2023-04-29T09:37:29.014Z,59.10
2023-04-29T09:39:58.225Z,59.00
2023-04-29T09:42:27.699Z,59.00
2023-04-29T09:44:58.357Z,59.60
2023-04-29T09:47:33.460Z,58.90
2023-04-29T09:50:15.462Z,58.90
2023-04-29T09:52:44.963Z,58.90
2023-04-29T09:55:16.202Z,58.80
2023-04-29T09:57:45.918Z,58.80
2023-04-29T10:00:16.909Z,58.80
2023-04-29T10:02:48.670Z,58.80
2023-04-29T10:05:18.185Z,58.80
2023-04-29T10:07:49.461Z,58.80
2023-04-29T10:10:20.464Z,58.70
2023-04-29T10:12:51.130Z,58.70
2023-04-29T10:15:27.675Z,58.70
2023-04-29T10:18:02.049Z,58.70
2023-04-29T10:20:31.850Z,58.60
2023-04-29T10:23:01.921Z,58.60
2023-04-29T10:25:31.791Z,58.80
2023-04-29T10:28:04.384Z,59.30
2023-04-29T10:30:37.130Z,59.60
2023-04-29T10:33:08.006Z,60.50
2023-04-29T10:35:38.699Z,60.70
2023-04-29T10:38:13.040Z,60.90
2023-04-29T10:40:46.737Z,61.30
2023-04-29T10:43:17.267Z,61.60
2023-04-29T10:45:48.555Z,61.40
2023-04-29T10:48:21.181Z,61.40
2023-04-29T10:51:06.305Z,61.50
2023-04-29T10:53:35.808Z,61.60
2023-04-29T10:56:11.299Z,62.40
2023-04-29T10:58:43.913Z,62.50
2023-04-29T11:01:16.522Z,62.10
2023-04-29T11:03:55.414Z,61.90
2023-04-29T11:06:26.477Z,61.90
2023-04-29T11:09:03.634Z,61.80
2023-04-29T11:12:03.293Z,62.00
2023-04-29T11:14:37.204Z,62.10
2023-04-29T11:17:14.157Z,62.20
2023-04-29T11:19:46.723Z,62.60
2023-04-29T11:22:27.343Z,62.60
2023-04-29T11:25:00.533Z,62.80
2023-04-29T11:27:33.462Z,63.00
2023-04-29T11:30:05.356Z,63.30
2023-04-29T11:32:38.034Z,64.40
2023-04-29T11:35:12.211Z,64.20
2023-04-29T11:37:42.636Z,64.00
2023-04-29T11:40:13.411Z,65.60
2023-04-29T11:42:45.736Z,65.70
2023-04-29T11:45:15.718Z,66.80
2023-04-29T11:47:48.553Z,68.10
2023-04-29T11:50:20.506Z,67.30
2023-04-29T11:52:51.117Z,67.10
2023-04-29T11:55:20.893Z,66.60
2023-04-29T11:57:52.701Z,66.30
2023-04-29T12:00:22.182Z,66.70
2023-04-29T12:02:52.982Z,67.00
2023-04-29T12:05:22.644Z,66.70
2023-04-29T12:07:52.318Z,67.30
2023-04-29T12:10:22.039Z,66.50
2023-04-29T12:12:51.694Z,66.40
2023-04-29T12:15:21.240Z,66.60
2023-04-29T12:17:50.632Z,66.20
2023-04-29T12:20:22.968Z,66.70
2023-04-29T12:22:52.272Z,67.00
2023-04-29T12:25:26.222Z,66.60
2023-04-29T12:28:01.358Z,65.90
2023-04-29T12:30:30.600Z,66.10
2023-04-29T12:33:00.006Z,65.40
2023-04-29T12:35:31.994Z,65.60
2023-04-29T12:38:01.872Z,65.40
2023-04-29T12:40:31.844Z,66.50
2023-04-29T12:43:09.648Z,65.30
2023-04-29T12:45:41.199Z,65.20
2023-04-29T12:48:22.084Z,64.80
2023-04-29T12:51:00.743Z,64.80
2023-04-29T12:53:32.610Z,64.90
2023-04-29T12:56:02.359Z,64.70
2023-04-29T12:58:33.125Z,64.60
2023-04-29T13:01:03.701Z,64.50
2023-04-29T13:03:34.641Z,64.50
2023-04-29T13:06:06.279Z,64.50
2023-04-29T13:08:36.029Z,64.40
2023-04-29T13:11:07.537Z,64.50
2023-04-29T13:13:37.606Z,64.50
2023-04-29T13:16:08.322Z,64.40
2023-04-29T13:18:39.024Z,64.80
2023-04-29T13:21:09.957Z,64.90
2023-04-29T13:23:39.193Z,64.40
2023-04-29T13:26:09.215Z,64.40
2023-04-29T13:28:38.425Z,64.20
2023-04-29T13:31:07.600Z,64.30
2023-04-29T13:33:39.825Z,64.30
2023-04-29T13:36:11.731Z,64.10
2023-04-29T13:38:40.982Z,64.00
2023-04-29T13:41:14.485Z,64.00
2023-04-29T13:43:49.084Z,64.50
2023-04-29T13:46:20.937Z,64.20
2023-04-29T13:49:10.309Z,63.80
2023-04-29T14:04:23.570Z,63.80
2023-04-29T14:06:54.567Z,63.90
2023-04-29T14:09:24.171Z,63.70
2023-04-29T14:11:54.235Z,63.70
2023-04-29T14:14:23.439Z,63.90
2023-04-29T14:16:52.781Z,63.80
2023-04-29T14:19:22.052Z,63.90
2023-04-29T14:21:52.210Z,64.10
2023-04-29T14:24:23.656Z,64.20
2023-04-29T14:26:53.557Z,64.50
2023-04-29T14:29:22.859Z,64.00
2023-04-29T14:31:52.313Z,63.90
2023-04-29T14:34:21.536Z,63.80
2023-04-29T14:36:50.627Z,63.60
2023-04-29T14:39:19.889Z,63.60
2023-04-29T14:41:50.568Z,63.60
2023-04-29T14:44:19.841Z,63.50
2023-04-29T14:46:49.160Z,63.40
2023-04-29T14:49:18.377Z,63.60
2023-04-29T14:51:47.586Z,63.70
2023-04-29T14:54:17.352Z,63.60
2023-04-29T14:56:46.596Z,63.80
2023-04-29T14:59:19.231Z,63.80
2023-04-29T15:01:48.976Z,63.80
2023-04-29T15:04:18.300Z,64.20
2023-04-29T15:06:47.493Z,63.70
2023-04-29T15:09:16.963Z,63.50
2023-04-29T15:11:46.250Z,63.20
2023-04-29T15:14:17.213Z,63.30
2023-04-29T15:16:47.163Z,63.40
2023-04-29T15:19:16.524Z,63.30
2023-04-29T15:21:45.715Z,63.00
2023-04-29T15:24:15.282Z,62.90
2023-04-29T15:26:44.610Z,63.90
2023-04-29T15:29:14.110Z,63.60
2023-04-29T15:31:44.877Z,63.20
2023-04-29T15:34:14.171Z,63.90
2023-04-29T15:36:43.771Z,63.70
2023-04-29T15:39:13.008Z,63.60
2023-04-29T15:41:42.421Z,63.80
2023-04-29T15:44:11.892Z,64.20
2023-04-29T15:46:41.145Z,63.80
2023-04-29T15:49:12.591Z,63.40
2023-04-29T15:51:42.038Z,63.00
2023-04-29T15:54:11.659Z,63.90
2023-04-29T15:56:41.504Z,63.90
2023-04-29T15:59:10.815Z,63.40
2023-04-29T16:01:40.170Z,63.40
2023-04-29T16:04:10.911Z,63.90
2023-04-29T16:06:40.654Z,64.10
2023-04-29T16:09:12.205Z,64.10
2023-04-29T16:11:41.607Z,64.40
2023-04-29T16:14:10.762Z,64.50
2023-04-29T16:16:40.003Z,64.40
2023-04-29T16:19:10.814Z,64.40
2023-04-29T16:21:40.179Z,64.40
2023-04-29T16:24:09.390Z,64.20
2023-04-29T16:26:40.561Z,64.30
2023-04-29T16:29:12.579Z,64.80
2023-04-29T16:31:42.707Z,64.80
2023-04-29T16:34:13.580Z,64.60
2023-04-29T16:36:43.108Z,64.40
2023-04-29T16:39:12.293Z,65.10
2023-04-29T16:41:41.621Z,64.90
2023-04-29T16:44:11.890Z,65.30
2023-04-29T16:46:41.139Z,65.00
2023-04-29T16:49:10.455Z,65.00
2023-04-29T16:51:43.521Z,64.80
2023-04-29T16:54:15.407Z,64.70
2023-04-29T16:56:44.693Z,64.70
2023-04-29T16:59:14.356Z,64.60
2023-04-29T17:01:44.234Z,64.90
2023-04-29T17:04:14.571Z,65.00
2023-04-29T17:06:45.925Z,65.20
2023-04-29T17:09:15.944Z,65.10
2023-04-29T17:11:45.217Z,65.20
2023-04-29T17:14:14.483Z,65.50
2023-04-29T17:16:43.832Z,65.30
2023-04-29T17:19:13.239Z,65.60
2023-04-29T17:21:42.709Z,65.60
2023-04-29T17:24:13.526Z,65.30
2023-04-29T17:26:42.767Z,65.30
2023-04-29T17:29:12.776Z,65.20
2023-04-29T17:31:54.719Z,65.30
2023-04-29T17:34:25.786Z,65.70
2023-04-29T17:36:55.965Z,65.80
2023-04-29T17:39:26.683Z,65.80
2023-04-29T17:41:56.035Z,65.40
2023-04-29T17:44:25.517Z,65.60
2023-04-29T17:46:54.858Z,65.90
2023-04-29T17:49:24.137Z,65.70
2023-04-29T17:51:53.615Z,65.60
2023-04-29T17:54:22.848Z,65.80
2023-04-29T17:56:53.500Z,65.40
2023-04-29T17:59:22.820Z,65.60
2023-04-29T18:01:52.565Z,65.10
2023-04-29T18:04:22.867Z,65.10
2023-04-29T18:06:53.609Z,65.40
2023-04-29T18:09:22.838Z,65.00
2023-04-29T18:11:53.587Z,65.00
2023-04-29T18:14:22.837Z,65.00
2023-04-29T18:16:52.388Z,65.40
2023-04-29T18:19:21.689Z,65.50
2023-04-29T18:21:50.978Z,65.20
2023-04-29T18:24:20.322Z,65.50
2023-04-29T18:26:49.535Z,66.10
2023-04-29T18:29:20.257Z,66.00
2023-04-29T18:31:49.592Z,66.40
2023-04-29T18:34:19.464Z,66.40
2023-04-29T18:36:48.760Z,66.50
2023-04-29T18:39:18.182Z,66.40
2023-04-29T18:41:47.639Z,66.50
2023-04-29T18:44:16.876Z,66.40
2023-04-29T18:46:48.104Z,66.30
2023-04-29T18:49:18.242Z,66.50
2023-04-29T18:51:47.758Z,66.90
2023-04-29T18:54:19.284Z,67.00
2023-04-29T18:56:50.407Z,66.70
2023-04-29T18:59:20.285Z,66.70
2023-04-29T19:01:51.128Z,66.70
2023-04-29T19:04:20.638Z,66.60
2023-04-29T19:06:49.917Z,66.50
2023-04-29T19:09:19.130Z,66.40
2023-04-29T19:11:48.534Z,66.20
2023-04-29T19:14:17.725Z,66.00
2023-04-29T19:16:47.069Z,66.10
2023-04-29T19:19:17.696Z,66.10
2023-04-29T19:21:47.171Z,66.20
2023-04-29T19:24:16.545Z,66.10
2023-04-29T19:26:46.091Z,66.10
2023-04-29T19:29:16.084Z,66.90
2023-04-29T19:31:45.870Z,67.00
2023-04-29T19:34:16.565Z,66.90
2023-04-29T19:36:46.025Z,67.00
2023-04-29T19:39:17.132Z,67.30
2023-04-29T19:41:47.098Z,67.10
2023-04-29T19:44:17.194Z,66.50
2023-04-29T19:46:46.761Z,66.50
2023-04-29T19:49:18.194Z,66.70
2023-04-29T19:51:47.896Z,66.90
2023-04-29T19:54:17.135Z,67.00
2023-04-29T19:56:47.349Z,67.10
2023-04-29T19:59:16.612Z,66.60
2023-04-29T20:01:46.110Z,67.40
2023-04-29T20:04:15.533Z,66.90
2023-04-29T20:06:46.544Z,66.80
2023-04-29T20:09:15.891Z,66.80
2023-04-29T20:11:45.251Z,66.80
2023-04-29T20:14:14.448Z,66.90
2023-04-29T20:16:44.590Z,67.00
2023-04-29T20:19:14.013Z,67.00
2023-04-29T20:21:43.399Z,67.20
2023-04-29T20:24:14.114Z,67.00
2023-04-29T20:26:43.387Z,66.90
2023-04-29T20:29:12.897Z,67.10
2023-04-29T20:31:42.547Z,67.10
2023-04-29T20:34:12.470Z,67.10
2023-04-29T20:36:41.810Z,67.20
2023-04-29T20:39:10.993Z,67.20
2023-04-29T20:41:41.812Z,67.30
2023-04-29T20:44:11.324Z,67.30
2023-04-29T20:46:41.574Z,67.10
2023-04-29T20:49:10.910Z,66.50
2023-04-29T20:51:40.214Z,66.20
2023-04-29T20:54:09.731Z,66.20
2023-04-29T20:56:40.374Z,66.40
2023-04-29T20:59:09.617Z,66.20
2023-04-29T21:01:39.062Z,66.40
2023-04-29T21:04:08.451Z,66.00
2023-04-29T21:06:37.929Z,66.20
2023-04-29T21:09:07.218Z,66.00
2023-04-29T21:11:36.478Z,65.50
2023-04-29T21:14:07.116Z,65.60
2023-04-29T21:16:36.347Z,65.60
2023-04-29T21:19:05.993Z,66.20
2023-04-29T21:21:35.754Z,66.30
2023-04-29T21:24:05.967Z,66.20
2023-04-29T21:26:35.980Z,66.20
2023-04-29T21:29:07.205Z,66.40
2023-04-29T21:31:36.579Z,66.30
2023-04-29T21:34:06.528Z,66.50
2023-04-29T21:36:35.802Z,66.60
2023-04-29T21:39:05.474Z,66.50
2023-04-29T21:41:38.611Z,66.60
2023-04-29T21:44:09.355Z,66.70
2023-04-29T21:46:38.760Z,66.80
2023-04-29T21:49:07.960Z,66.90
2023-04-29T21:51:37.687Z,67.40
2023-04-29T21:54:08.784Z,67.50
2023-04-29T21:56:38.276Z,67.50
2023-04-29T21:59:08.856Z,67.60
2023-04-29T22:01:48.674Z,67.70
2023-04-29T22:04:19.195Z,67.60
2023-04-29T22:06:48.577Z,67.50
2023-04-29T22:09:17.770Z,67.70
2023-04-29T22:11:46.971Z,67.40
2023-04-29T22:14:17.590Z,67.50
2023-04-29T22:16:46.780Z,67.70
2023-04-29T22:19:15.986Z,67.50
2023-04-29T22:21:45.156Z,67.50
2023-04-29T22:24:14.330Z,67.40
2023-04-29T22:26:43.497Z,67.60
2023-04-29T22:29:12.630Z,67.50
2023-04-29T22:31:43.309Z,67.50
2023-04-29T22:34:12.638Z,67.20
2023-04-29T22:36:41.814Z,67.10
2023-04-29T22:39:11.031Z,67.10
2023-04-29T22:41:40.325Z,66.70
2023-04-29T22:44:09.446Z,66.70
2023-04-29T22:46:38.751Z,66.90
2023-04-29T22:49:09.372Z,67.20
2023-04-29T22:51:38.684Z,67.50
2023-04-29T22:54:08.961Z,67.50
2023-04-29T22:56:38.229Z,67.60
2023-04-29T22:59:07.352Z,67.50
2023-04-29T23:01:36.894Z,67.60
2023-04-29T23:04:06.468Z,67.70
2023-04-29T23:06:37.189Z,67.70
2023-04-29T23:09:06.536Z,67.80
2023-04-29T23:11:36.388Z,67.60
2023-04-29T23:14:05.552Z,67.70
2023-04-29T23:16:34.687Z,67.60
2023-04-29T23:19:04.526Z,67.50
2023-04-29T23:21:33.788Z,67.30
2023-04-29T23:24:04.527Z,67.20
2023-04-29T23:26:33.697Z,67.40
2023-04-29T23:29:02.818Z,67.50
2023-04-29T23:31:32.189Z,67.40
2023-04-29T23:34:01.394Z,67.50
2023-04-29T23:36:30.576Z,67.40
2023-04-29T23:38:59.740Z,67.40
2023-04-29T23:41:31.947Z,67.30
2023-04-29T23:44:02.537Z,67.20
2023-04-29T23:46:32.104Z,67.20
2023-04-29T23:49:01.810Z,67.20
2023-04-29T23:51:33.068Z,67.00
2023-04-29T23:54:02.211Z,67.20
2023-04-29T23:56:33.948Z,67.10
2023-04-29T23:59:03.103Z,67.00
